Time;durP1;ratioP1;P1;durP2;ratioP2;P2;SDS_P1;SDS_P2;PMS_P1;PMS_P2;Temp;Humidity;BMP_temperature;BMP_pressure;BME280_temperature;BME280_humidity;BME280_pressure;Samples;Min_cycle;Max_cycle;Signal;HPM_P1;HPM_P2
2022/12/21 00:01:15;;;;;;;57.75;40.92;;;;;;;;;;10057651;28;20064;-63
2022/12/21 00:06:09;;;;;;;58.30;44.42;;;;;;;;;;10074267;28;20053;-63
2022/12/21 00:11:03;;;;;;;53.67;43.22;;;;;;;;;;10074433;28;20073;-62
2022/12/21 00:16:01;;;;;;;55.78;43.13;;;;;;;;;;10081997;28;20061;-63
2022/12/21 00:21:21;;;;;;;58.50;41.35;;;;;;;;;;10074200;28;20045;-63
2022/12/21 00:26:35;;;;;;;49.97;36.95;;;;;;;;;;10082566;28;20041;-63
2022/12/21 00:31:31;;;;;;;52.47;40.92;;;;;;;;;;10076271;28;20132;-63
2022/12/21 00:36:43;;;;;;;111.85;66.47;;;;;;;;;;10067958;28;20046;-63
2022/12/21 00:41:36;;;;;;;112.43;68.32;;;;;;;;;;10083779;28;20047;-63
2022/12/21 00:46:31;;;;;;;111.28;67.15;;;;;;;;;;10075217;28;20045;-63
2022/12/21 00:51:25;;;;;;;121.53;69.57;;;;;;;;;;10063375;28;20104;-62
2022/12/21 00:56:19;;;;;;;112.45;65.50;;;;;;;;;;10064862;28;20490;-63
2022/12/21 01:01:23;;;;;;;86.88;55.33;;;;;;;;;;10063920;28;20052;-64
2022/12/21 01:06:19;;;;;;;75.95;53.10;;;;;;;;;;10064568;28;20045;-64
2022/12/21 01:11:14;;;;;;;63.92;43.75;;;;;;;;;;10070536;28;20490;-63
2022/12/21 01:16:13;;;;;;;59.72;45.30;;;;;;;;;;10072212;28;20474;-63
2022/12/21 01:21:06;;;;;;;55.00;42.92;;;;;;;;;;10070563;28;20053;-62
2022/12/21 01:26:00;;;;;;;57.63;41.58;;;;;;;;;;10070308;28;20056;-63
2022/12/21 01:30:53;;;;;;;61.47;44.67;;;;;;;;;;10069110;28;20045;-63
2022/12/21 01:35:47;;;;;;;58.67;43.10;;;;;;;;;;10071507;28;20073;-63
2022/12/21 01:40:39;;;;;;;60.75;46.40;;;;;;;;;;10069952;28;20053;-63
2022/12/21 01:45:32;;;;;;;54.63;41.33;;;;;;;;;;10069265;28;20138;-63
2022/12/21 01:50:28;;;;;;;58.33;46.03;;;;;;;;;;10070426;28;20045;-63
2022/12/21 01:55:20;;;;;;;63.28;43.35;;;;;;;;;;10073579;28;20136;-63
2022/12/21 02:00:16;;;;;;;54.42;40.80;;;;;;;;;;10050926;28;20049;-63
2022/12/21 02:05:19;;;;;;;48.40;38.00;;;;;;;;;;10068823;28;20045;-62
2022/12/21 02:10:14;;;;;;;50.83;36.97;;;;;;;;;;10069780;28;20037;-62
2022/12/21 02:15:08;;;;;;;47.88;35.17;;;;;;;;;;10069661;28;20037;-62
2022/12/21 02:20:12;;;;;;;46.30;36.65;;;;;;;;;;10069250;28;20060;-63
2022/12/21 02:25:19;;;;;;;43.13;35.25;;;;;;;;;;10068069;28;20525;-63
2022/12/21 02:30:17;;;;;;;42.45;34.53;;;;;;;;;;10068378;28;20080;-62
2022/12/21 02:35:34;;;;;;;39.25;31.80;;;;;;;;;;10067923;28;20049;-63
2022/12/21 02:40:48;;;;;;;46.80;34.50;;;;;;;;;;10084430;28;20073;-63
2022/12/21 02:45:56;;;;;;;38.28;32.08;;;;;;;;;;10083834;28;20045;-63
2022/12/21 02:50:52;;;;;;;43.78;33.97;;;;;;;;;;10066938;28;20092;-63
2022/12/21 02:55:46;;;;;;;40.10;32.65;;;;;;;;;;10066399;28;20042;-63
2022/12/21 03:00:50;;;;;;;86.82;47.90;;;;;;;;;;10067818;28;20499;-63
2022/12/21 03:06:10;;;;;;;107.43;57.67;;;;;;;;;;10053270;28;20468;-63
2022/12/21 03:11:03;;;;;;;107.63;53.80;;;;;;;;;;10033328;28;20077;-62
2022/12/21 03:16:23;;;;;;;110.07;51.75;;;;;;;;;;10049486;28;20050;-63
2022/12/21 03:21:23;;;;;;;105.35;53.97;;;;;;;;;;10082159;28;20481;-62
2022/12/21 03:26:22;;;;;;;102.18;51.40;;;;;;;;;;10066698;28;20053;-63
2022/12/21 03:31:18;;;;;;;108.22;49.42;;;;;;;;;;10067104;28;20065;-63
2022/12/21 03:36:18;;;;;;;90.38;52.58;;;;;;;;;;10065314;28;20056;-63
2022/12/21 03:41:22;;;;;;;94.00;47.63;;;;;;;;;;10066567;28;20057;-63
2022/12/21 03:46:23;;;;;;;82.97;46.45;;;;;;;;;;10064838;28;20457;-63
2022/12/21 03:51:35;;;;;;;91.28;46.80;;;;;;;;;;10065450;28;20049;-63
2022/12/21 03:56:35;;;;;;;86.15;44.38;;;;;;;;;;10064679;28;20045;-63
2022/12/21 04:01:34;;;;;;;85.88;45.45;;;;;;;;;;10064736;28;20081;-63
2022/12/21 04:06:30;;;;;;;87.45;45.25;;;;;;;;;;10065349;28;20112;-64
2022/12/21 04:16:35;;;;;;;91.82;46.67;;;;;;;;;;10065867;28;20057;-63
2022/12/21 04:21:29;;;;;;;53.83;34.70;;;;;;;;;;10065613;28;20099;-63
2022/12/21 04:31:33;;;;;;;34.55;29.10;;;;;;;;;;10057267;28;20061;-62
2022/12/21 04:41:38;;;;;;;37.38;29.05;;;;;;;;;;10058179;28;20054;-61
2022/12/21 04:46:31;;;;;;;50.40;32.53;;;;;;;;;;10072927;28;20050;-61
2022/12/21 04:51:25;;;;;;;51.30;36.33;;;;;;;;;;10072392;28;20065;-62
2022/12/21 04:56:18;;;;;;;52.75;34.90;;;;;;;;;;10072641;28;20079;-62
2022/12/21 05:01:14;;;;;;;51.78;36.28;;;;;;;;;;10071902;28;20057;-63
2022/12/21 05:06:08;;;;;;;46.20;32.90;;;;;;;;;;10072327;28;20049;-63
2022/12/21 05:11:08;;;;;;;51.53;33.88;;;;;;;;;;10072133;28;20049;-63
2022/12/21 05:16:02;;;;;;;73.68;42.50;;;;;;;;;;10071405;28;20053;-63
2022/12/21 05:20:56;;;;;;;61.83;38.58;;;;;;;;;;10067682;28;20095;-63
2022/12/21 05:25:49;;;;;;;70.65;39.78;;;;;;;;;;10071635;28;20409;-63
2022/12/21 05:30:43;;;;;;;64.25;36.35;;;;;;;;;;10071366;28;20103;-64
2022/12/21 05:35:42;;;;;;;70.20;41.28;;;;;;;;;;10071206;28;20053;-63
2022/12/21 05:40:35;;;;;;;75.40;41.65;;;;;;;;;;10071470;28;20045;-63
2022/12/21 05:45:28;;;;;;;74.20;40.35;;;;;;;;;;10070715;28;20085;-63
2022/12/21 05:50:22;;;;;;;79.43;46.75;;;;;;;;;;10070364;28;20051;-63
2022/12/21 05:55:18;;;;;;;72.10;42.65;;;;;;;;;;10068739;28;20128;-63
2022/12/21 06:00:13;;;;;;;71.30;40.75;;;;;;;;;;10070763;28;20081;-63
2022/12/21 06:05:07;;;;;;;69.07;40.50;;;;;;;;;;10070267;28;20084;-64
2022/12/21 06:10:01;;;;;;;67.80;40.17;;;;;;;;;;10069948;28;20037;-64
2022/12/21 06:14:54;;;;;;;61.75;40.80;;;;;;;;;;10069570;28;20041;-64
2022/12/21 06:19:48;;;;;;;82.88;47.47;;;;;;;;;;10068638;28;20052;-63
2022/12/21 06:24:41;;;;;;;70.82;39.83;;;;;;;;;;10078052;28;20743;-63
2022/12/21 06:29:34;;;;;;;67.97;39.50;;;;;;;;;;10064678;28;20158;-63
2022/12/21 06:34:27;;;;;;;68.32;40.60;;;;;;;;;;10068125;28;20073;-63
2022/12/21 06:39:21;;;;;;;71.65;44.40;;;;;;;;;;10068416;28;20064;-62
2022/12/21 06:44:14;;;;;;;64.43;40.42;;;;;;;;;;10068038;28;20045;-62
2022/12/21 06:49:07;;;;;;;70.50;42.60;;;;;;;;;;10067178;28;20416;-63
2022/12/21 06:54:01;;;;;;;77.30;44.40;;;;;;;;;;10068368;28;20137;-62
2022/12/21 06:58:54;;;;;;;71.65;43.60;;;;;;;;;;10067979;28;20049;-62
2022/12/21 07:03:48;;;;;;;73.35;41.17;;;;;;;;;;10064800;28;20071;-63
2022/12/21 07:08:41;;;;;;;74.03;45.25;;;;;;;;;;10068176;28;20165;-62
2022/12/21 07:13:35;;;;;;;67.90;41.08;;;;;;;;;;10067100;28;20049;-62
2022/12/21 07:18:28;;;;;;;76.65;45.35;;;;;;;;;;10066924;28;20057;-62
2022/12/21 07:23:22;;;;;;;64.38;40.55;;;;;;;;;;10065351;28;20041;-62
2022/12/21 07:28:15;;;;;;;61.72;39.80;;;;;;;;;;10065528;28;20141;-62
2022/12/21 07:33:09;;;;;;;72.95;43.22;;;;;;;;;;10066040;28;20057;-62
2022/12/21 07:38:02;;;;;;;76.80;42.08;;;;;;;;;;10066124;28;20049;-63
2022/12/21 07:42:55;;;;;;;86.47;49.00;;;;;;;;;;10065508;28;20095;-62
2022/12/21 07:48:03;;;;;;;92.70;51.70;;;;;;;;;;10064581;28;20209;-62
2022/12/21 07:52:58;;;;;;;114.68;60.67;;;;;;;;;;10065133;28;20115;-63
2022/12/21 07:57:52;;;;;;;126.13;67.95;;;;;;;;;;10064781;28;20058;-63
2022/12/21 08:02:46;;;;;;;110.47;59.55;;;;;;;;;;10064364;28;20049;-61
2022/12/21 08:07:40;;;;;;;98.00;57.53;;;;;;;;;;10065517;28;20076;-60
2022/12/21 08:12:34;;;;;;;99.97;55.53;;;;;;;;;;10064436;28;20056;-60
2022/12/21 08:17:27;;;;;;;107.38;56.40;;;;;;;;;;10064565;28;20091;-60
2022/12/21 08:22:20;;;;;;;102.78;58.88;;;;;;;;;;10064423;28;20050;-60
2022/12/21 08:27:14;;;;;;;108.53;55.53;;;;;;;;;;10064504;28;20064;-60
2022/12/21 08:32:07;;;;;;;91.20;52.38;;;;;;;;;;10063730;28;20144;-60
2022/12/21 08:37:00;;;;;;;96.95;54.47;;;;;;;;;;10062432;28;20510;-60
2022/12/21 08:41:53;;;;;;;88.95;53.15;;;;;;;;;;10059941;28;20144;-61
2022/12/21 08:46:46;;;;;;;89.55;51.33;;;;;;;;;;10062195;28;20049;-61
2022/12/21 08:51:39;;;;;;;94.22;54.83;;;;;;;;;;10064174;28;20450;-61
2022/12/21 08:56:33;;;;;;;89.40;53.00;;;;;;;;;;10063551;28;20080;-61
2022/12/21 09:01:27;;;;;;;100.40;53.90;;;;;;;;;;10063182;28;20042;-61
2022/12/21 09:06:21;;;;;;;98.57;56.72;;;;;;;;;;10063954;28;20486;-61
2022/12/21 09:11:15;;;;;;;96.55;55.40;;;;;;;;;;10063265;28;20041;-61
2022/12/21 09:16:20;;;;;;;93.88;55.08;;;;;;;;;;10064007;28;20041;-61
2022/12/21 09:21:14;;;;;;;96.38;55.55;;;;;;;;;;10061040;28;20061;-61
2022/12/21 09:26:07;;;;;;;99.88;52.85;;;;;;;;;;10063304;28;20060;-61
2022/12/21 09:31:21;;;;;;;99.20;55.65;;;;;;;;;;10065941;28;20458;-61
2022/12/21 09:36:16;;;;;;;86.88;50.05;;;;;;;;;;10070315;28;20053;-61
2022/12/21 09:41:08;;;;;;;93.28;56.85;;;;;;;;;;10069888;28;20053;-61
2022/12/21 09:46:07;;;;;;;81.85;47.45;;;;;;;;;;10069381;28;20077;-63
2022/12/21 09:51:15;;;;;;;82.60;50.25;;;;;;;;;;10069149;28;20083;-62
2022/12/21 09:56:11;;;;;;;72.70;48.13;;;;;;;;;;10065401;28;20045;-62
2022/12/21 10:01:15;;;;;;;72.38;45.05;;;;;;;;;;10067821;28;20042;-61
2022/12/21 10:06:18;;;;;;;75.32;45.55;;;;;;;;;;10069593;28;20065;-62
2022/12/21 10:11:44;;;;;;;68.70;43.05;;;;;;;;;;10065476;28;20517;-61
2022/12/21 10:16:46;;;;;;;71.35;42.78;;;;;;;;;;10064633;28;20046;-61
2022/12/21 10:22:02;;;;;;;66.60;42.88;;;;;;;;;;10068196;28;20674;-62
2022/12/21 10:27:01;;;;;;;65.28;41.28;;;;;;;;;;10068585;28;20076;-62
2022/12/21 10:31:55;;;;;;;57.45;38.55;;;;;;;;;;10068016;28;20053;-61
2022/12/21 10:36:55;;;;;;;61.33;40.13;;;;;;;;;;10063227;28;20121;-62
2022/12/21 10:42:15;;;;;;;54.60;37.30;;;;;;;;;;10068952;28;20509;-62
2022/12/21 10:47:16;;;;;;;58.08;37.35;;;;;;;;;;10067739;28;20057;-62
2022/12/21 10:52:39;;;;;;;56.97;39.65;;;;;;;;;;10061862;28;20100;-62
2022/12/21 10:57:33;;;;;;;61.45;37.85;;;;;;;;;;10065718;28;20061;-61
2022/12/21 11:02:43;;;;;;;49.40;36.53;;;;;;;;;;10066099;28;20049;-62
2022/12/21 11:07:37;;;;;;;48.20;34.75;;;;;;;;;;10066187;28;20498;-62
2022/12/21 11:12:51;;;;;;;58.20;35.38;;;;;;;;;;10062893;28;20037;-60
2022/12/21 11:17:45;;;;;;;52.70;37.90;;;;;;;;;;10065761;28;20049;-62
2022/12/21 11:22:40;;;;;;;53.80;38.03;;;;;;;;;;10065370;28;20057;-61
2022/12/21 11:28:01;;;;;;;49.70;35.10;;;;;;;;;;10065005;28;20405;-61
2022/12/21 11:32:56;;;;;;;52.47;36.67;;;;;;;;;;10062625;28;20111;-61
2022/12/21 11:38:05;;;;;;;53.88;36.80;;;;;;;;;;10071069;28;20149;-61
2022/12/21 11:42:58;;;;;;;56.25;37.97;;;;;;;;;;10054071;28;20111;-61
2022/12/21 11:48:15;;;;;;;53.97;38.42;;;;;;;;;;10062708;28;20049;-60
2022/12/21 11:53:08;;;;;;;57.53;39.05;;;;;;;;;;10062867;28;20149;-61
2022/12/21 11:58:09;;;;;;;54.88;39.08;;;;;;;;;;10064300;28;20077;-61
2022/12/21 12:03:34;;;;;;;52.67;39.22;;;;;;;;;;10068216;28;20107;-61
2022/12/21 12:09:03;;;;;;;54.08;37.47;;;;;;;;;;10042813;28;20706;-61
2022/12/21 12:13:56;;;;;;;54.40;37.20;;;;;;;;;;10065522;28;20057;-61
2022/12/21 12:18:51;;;;;;;57.50;37.33;;;;;;;;;;10070707;28;20046;-62
2022/12/21 12:24:25;;;;;;;54.83;36.85;;;;;;;;;;10064454;28;20061;-61
2022/12/21 12:29:45;;;;;;;60.08;40.90;;;;;;;;;;10056494;28;20080;-61
2022/12/21 13:52:27;;;;;;;67.60;42.67;;;;;;;;;;10176960;27;20932;-62
2022/12/21 13:57:29;;;;;;;62.97;43.83;;;;;;;;;;10171169;28;20489;-62
2022/12/21 14:02:32;;;;;;;61.58;42.30;;;;;;;;;;10175013;28;20219;-63
2022/12/21 14:07:28;;;;;;;70.30;44.58;;;;;;;;;;10179417;28;20044;-63
2022/12/21 14:12:33;;;;;;;67.10;44.97;;;;;;;;;;10178945;28;20098;-64
2022/12/21 14:17:41;;;;;;;66.55;43.20;;;;;;;;;;10178705;28;20064;-64
2022/12/21 14:22:42;;;;;;;69.20;43.78;;;;;;;;;;10176359;28;20105;-64
2022/12/21 14:27:36;;;;;;;69.47;43.45;;;;;;;;;;10160780;28;20131;-63
2022/12/21 14:32:30;;;;;;;66.22;43.45;;;;;;;;;;10176351;28;20052;-65
2022/12/21 14:38:07;;;;;;;70.93;45.10;;;;;;;;;;10174887;28;20125;-65
2022/12/21 14:43:02;;;;;;;73.03;47.13;;;;;;;;;;10160087;28;20079;-64
2022/12/21 14:48:43;;;;;;;66.57;42.38;;;;;;;;;;10176364;28;20048;-64
2022/12/21 14:53:38;;;;;;;60.90;41.80;;;;;;;;;;10129029;28;20056;-64
2022/12/21 14:58:42;;;;;;;68.28;45.67;;;;;;;;;;10146279;28;20482;-61
2022/12/21 15:04:11;;;;;;;63.97;45.05;;;;;;;;;;10131763;28;20048;-67
2022/12/21 15:09:19;;;;;;;65.03;43.13;;;;;;;;;;10147092;28;20059;-66
2022/12/21 15:14:23;;;;;;;78.15;49.80;;;;;;;;;;10147453;28;20051;-62
2022/12/21 15:19:33;;;;;;;66.88;45.60;;;;;;;;;;10146778;28;20405;-63
2022/12/21 15:24:31;;;;;;;72.88;47.00;;;;;;;;;;10146681;28;20451;-63
2022/12/21 15:29:34;;;;;;;57.67;41.83;;;;;;;;;;10129215;28;20122;-61
2022/12/21 15:34:32;;;;;;;60.42;40.97;;;;;;;;;;10144239;28;20053;-63
2022/12/21 15:39:28;;;;;;;56.08;38.08;;;;;;;;;;10144897;28;20066;-63
2022/12/21 15:44:48;;;;;;;54.97;38.17;;;;;;;;;;10134061;28;20056;-60
2022/12/21 15:49:54;;;;;;;57.72;39.22;;;;;;;;;;10167587;28;20083;-62
2022/12/21 15:54:48;;;;;;;53.85;37.90;;;;;;;;;;10154234;28;20058;-62
2022/12/21 15:59:43;;;;;;;60.22;43.03;;;;;;;;;;10142640;28;20076;-62
2022/12/21 16:04:44;;;;;;;61.13;41.13;;;;;;;;;;10160989;28;20102;-61
2022/12/21 16:09:40;;;;;;;57.63;37.90;;;;;;;;;;10142077;28;20041;-62
2022/12/21 16:14:39;;;;;;;57.78;39.45;;;;;;;;;;10152390;28;20047;-62
2022/12/21 16:19:36;;;;;;;60.83;41.58;;;;;;;;;;10143131;28;20665;-65
2022/12/21 16:24:32;;;;;;;53.22;38.63;;;;;;;;;;10144891;28;20510;-65
2022/12/21 16:29:26;;;;;;;59.10;40.28;;;;;;;;;;10126964;28;20056;-65
2022/12/21 16:34:32;;;;;;;62.17;40.17;;;;;;;;;;10134668;28;20056;-65
2022/12/21 16:39:27;;;;;;;58.03;39.25;;;;;;;;;;10162610;28;20071;-71
2022/12/21 16:44:35;;;;;;;53.28;38.05;;;;;;;;;;10163110;28;20083;-71
2022/12/21 16:49:28;;;;;;;61.08;38.72;;;;;;;;;;10149731;28;20063;-70
2022/12/21 16:54:45;;;;;;;57.65;42.03;;;;;;;;;;10154839;28;20492;-69
2022/12/21 16:59:44;;;;;;;55.33;40.72;;;;;;;;;;10154637;28;20127;-70
2022/12/21 17:04:38;;;;;;;71.90;45.67;;;;;;;;;;10167540;28;20044;-70
2022/12/21 17:09:40;;;;;;;62.20;41.78;;;;;;;;;;10151943;28;20048;-69
2022/12/21 17:14:39;;;;;;;54.17;39.60;;;;;;;;;;10151365;28;20127;-63
2022/12/21 17:19:33;;;;;;;61.07;44.90;;;;;;;;;;10149598;28;20040;-63
2022/12/21 17:24:30;;;;;;;62.97;43.83;;;;;;;;;;10157834;28;20060;-63
2022/12/21 17:29:25;;;;;;;59.43;43.53;;;;;;;;;;10151094;28;20074;-63
2022/12/21 17:34:23;;;;;;;65.50;46.30;;;;;;;;;;10160219;28;20052;-63
2022/12/21 17:39:19;;;;;;;61.85;43.75;;;;;;;;;;10148610;28;20044;-63
2022/12/21 17:44:13;;;;;;;60.78;43.53;;;;;;;;;;10158341;28;20053;-63
2022/12/21 17:49:27;;;;;;;75.30;54.38;;;;;;;;;;10159547;28;20446;-63
2022/12/21 17:54:23;;;;;;;58.38;40.80;;;;;;;;;;10152455;28;20059;-63
2022/12/21 17:59:17;;;;;;;88.47;62.03;;;;;;;;;;10155234;28;20437;-63
2022/12/21 18:04:13;;;;;;;62.10;43.20;;;;;;;;;;10155465;28;20106;-63
2022/12/21 18:09:06;;;;;;;58.08;40.05;;;;;;;;;;10144529;28;20079;-63
2022/12/21 18:14:01;;;;;;;61.08;40.38;;;;;;;;;;10156223;28;20495;-63
2022/12/21 18:18:55;;;;;;;58.83;40.58;;;;;;;;;;10156823;28;20167;-62
2022/12/21 18:23:49;;;;;;;60.67;41.67;;;;;;;;;;10148327;28;20087;-63
2022/12/21 18:28:46;;;;;;;58.70;41.03;;;;;;;;;;10151918;28;20053;-62
2022/12/21 18:34:05;;;;;;;53.85;37.88;;;;;;;;;;10163638;28;20071;-65
2022/12/21 18:39:01;;;;;;;59.22;42.10;;;;;;;;;;10151673;28;20059;-63
2022/12/21 18:43:55;;;;;;;59.20;41.05;;;;;;;;;;10160480;28;20087;-63
2022/12/21 18:48:49;;;;;;;64.88;41.22;;;;;;;;;;10159270;28;20063;-63
2022/12/21 18:53:43;;;;;;;62.42;40.35;;;;;;;;;;10163625;28;20059;-63
2022/12/21 18:58:38;;;;;;;52.58;39.10;;;;;;;;;;10173471;28;20056;-63
2022/12/21 19:03:33;;;;;;;56.83;40.58;;;;;;;;;;10168133;28;20055;-62
2022/12/21 19:08:28;;;;;;;54.83;40.10;;;;;;;;;;10164294;28;20043;-62
2022/12/21 19:13:30;;;;;;;64.35;43.80;;;;;;;;;;10171557;28;20161;-64
2022/12/21 19:18:25;;;;;;;55.92;40.83;;;;;;;;;;10173143;28;20044;-64
2022/12/21 19:23:23;;;;;;;57.20;38.85;;;;;;;;;;10177318;28;20462;-63
2022/12/21 19:28:19;;;;;;;56.88;40.97;;;;;;;;;;10174237;28;20549;-61
2022/12/21 19:33:13;;;;;;;59.85;40.83;;;;;;;;;;10175948;28;20508;-63
2022/12/21 19:38:07;;;;;;;63.63;42.53;;;;;;;;;;10159081;28;20052;-63
2022/12/21 19:43:00;;;;;;;63.03;45.05;;;;;;;;;;10127519;28;20507;-63
2022/12/21 19:47:54;;;;;;;63.47;41.88;;;;;;;;;;10134151;28;20085;-63
2022/12/21 19:52:47;;;;;;;66.10;45.50;;;;;;;;;;10136729;28;20072;-63
2022/12/21 19:57:43;;;;;;;65.93;47.03;;;;;;;;;;10133971;28;20504;-62
2022/12/21 20:02:42;;;;;;;63.78;44.22;;;;;;;;;;10121344;28;20071;-63
2022/12/21 20:07:37;;;;;;;59.55;41.63;;;;;;;;;;10127962;28;20049;-63
2022/12/21 20:12:31;;;;;;;55.88;40.55;;;;;;;;;;10129046;28;20079;-62
2022/12/21 20:17:27;;;;;;;68.60;49.70;;;;;;;;;;10136595;28;20516;-63
2022/12/21 20:22:21;;;;;;;58.75;42.88;;;;;;;;;;10136113;28;20063;-63
2022/12/21 20:27:33;;;;;;;52.03;39.05;;;;;;;;;;10142140;28;20085;-61
2022/12/21 20:32:27;;;;;;;53.40;38.80;;;;;;;;;;10114377;28;20095;-61
2022/12/21 20:37:24;;;;;;;50.10;36.15;;;;;;;;;;10137058;28;20052;-61
2022/12/21 20:47:38;;;;;;;48.17;37.25;;;;;;;;;;10139335;28;20041;-66
2022/12/21 20:52:32;;;;;;;48.15;34.42;;;;;;;;;;10116987;28;20083;-62
2022/12/21 20:57:26;;;;;;;46.70;34.45;;;;;;;;;;10121519;28;20623;-61
2022/12/21 21:02:25;;;;;;;51.08;34.85;;;;;;;;;;10117740;28;20532;-63
2022/12/21 21:07:38;;;;;;;50.42;37.17;;;;;;;;;;10126984;28;20047;-62
2022/12/21 21:12:32;;;;;;;51.78;34.95;;;;;;;;;;10128135;28;20048;-61
2022/12/21 21:17:26;;;;;;;50.28;36.05;;;;;;;;;;10125801;28;20048;-61
2022/12/21 21:27:45;;;;;;;55.38;37.42;;;;;;;;;;10114480;28;20536;-61
2022/12/21 21:32:39;;;;;;;52.70;40.20;;;;;;;;;;10130041;28;20052;-62
2022/12/21 21:37:33;;;;;;;58.90;39.15;;;;;;;;;;10119767;28;20106;-61
2022/12/21 21:42:27;;;;;;;57.13;38.92;;;;;;;;;;10139038;28;20049;-62
2022/12/21 21:47:30;;;;;;;57.47;39.53;;;;;;;;;;10111678;28;20053;-62
2022/12/21 21:52:25;;;;;;;54.20;39.60;;;;;;;;;;10131288;28;20049;-62
2022/12/21 21:57:25;;;;;;;49.55;36.90;;;;;;;;;;10126722;28;20057;-62
2022/12/21 22:02:31;;;;;;;53.33;36.47;;;;;;;;;;10156126;28;20049;-62
2022/12/21 22:07:26;;;;;;;52.10;38.58;;;;;;;;;;10145299;28;20067;-62
2022/12/21 22:12:22;;;;;;;58.08;39.67;;;;;;;;;;10136401;28;20057;-62
2022/12/21 22:17:16;;;;;;;53.70;40.72;;;;;;;;;;10120313;28;20048;-62
2022/12/21 22:32:54;;;;;;;65.57;39.03;;;;;;;;;;10145403;28;20051;-60
2022/12/21 22:43:00;;;;;;;56.35;38.25;;;;;;;;;;10160522;28;20110;-61
2022/12/21 22:47:55;;;;;;;53.22;37.13;;;;;;;;;;10163903;28;20071;-61
2022/12/21 22:52:49;;;;;;;55.65;38.58;;;;;;;;;;10160207;28;20051;-61
2022/12/21 22:57:43;;;;;;;58.15;38.08;;;;;;;;;;10160657;28;20523;-61
2022/12/21 23:02:37;;;;;;;52.47;38.70;;;;;;;;;;10158786;28;20040;-62
2022/12/21 23:07:31;;;;;;;55.28;36.33;;;;;;;;;;10158117;28;20079;-61
2022/12/21 23:28:04;;;;;;;48.65;36.85;;;;;;;;;;10161604;28;20049;-61
2022/12/21 23:43:31;;;;;;;54.42;38.92;;;;;;;;;;10163576;28;20071;-62
